<?xml version="1.0" encoding="UTF-8" standalone="no" ?>
<gpx xmlns="http://www.topografix.com/GPX/1/1" xmlns:xsi="http://www.w3.org/2001/XMLSchema-instance" xsi:schemaLocation="http://www.topografix.com/GPX/1/1 http://www.topografix.com/GPX/1/1/gpx.xsd" version="1.1" creator="VisuGPX - https://www.visugpx.com">
  <metadata>
    <name>Boignée - bois Bellin en boucle</name>
  </metadata>
  <trk>
    <name><![CDATA[Maps3D 2021-03-07 03-03pm]]></name>
    <trkseg>
      <trkpt lat="50.50001" lon="4.61772">
        <ele>151.19931</ele>
        <time>2021-03-07T12:54:26Z</time>
      </trkpt>
      <trkpt lat="50.50008" lon="4.61629">
        <ele>149.1</ele>
      </trkpt>
      <trkpt lat="50.50001" lon="4.61772">
        <ele>151.19931</ele>
        <time>2021-03-07T12:54:26Z</time>
      </trkpt>
      <trkpt lat="50.49999" lon="4.61834">
        <ele>152.019653</ele>
        <time>2021-03-07T12:54:56Z</time>
      </trkpt>
      <trkpt lat="50.5" lon="4.61893">
        <ele>152.002563</ele>
        <time>2021-03-07T12:55:27Z</time>
      </trkpt>
      <trkpt lat="50.49996" lon="4.61953">
        <ele>152.528992</ele>
        <time>2021-03-07T12:55:58Z</time>
      </trkpt>
      <trkpt lat="50.49994" lon="4.62008">
        <ele>153.135498</ele>
        <time>2021-03-07T12:56:28Z</time>
      </trkpt>
      <trkpt lat="50.49994" lon="4.62069">
        <ele>153.139282</ele>
        <time>2021-03-07T12:56:59Z</time>
      </trkpt>
      <trkpt lat="50.49998" lon="4.6213">
        <ele>153.054321</ele>
        <time>2021-03-07T12:57:30Z</time>
      </trkpt>
      <trkpt lat="50.50004" lon="4.62193">
        <ele>152.296875</ele>
        <time>2021-03-07T12:58:01Z</time>
      </trkpt>
      <trkpt lat="50.50013" lon="4.62255">
        <ele>150.654694</ele>
        <time>2021-03-07T12:58:31Z</time>
      </trkpt>
      <trkpt lat="50.50019" lon="4.62312">
        <ele>148.841827</ele>
        <time>2021-03-07T12:59:01Z</time>
      </trkpt>
      <trkpt lat="50.50015" lon="4.62376">
        <ele>148.141754</ele>
        <time>2021-03-07T12:59:31Z</time>
      </trkpt>
      <trkpt lat="50.50009" lon="4.62434">
        <ele>147.690796</ele>
        <time>2021-03-07T13:00:01Z</time>
      </trkpt>
      <trkpt lat="50.50013" lon="4.62489">
        <ele>145.880814</ele>
        <time>2021-03-07T13:00:31Z</time>
      </trkpt>
      <trkpt lat="50.50013" lon="4.62554">
        <ele>144.275452</ele>
        <time>2021-03-07T13:01:02Z</time>
      </trkpt>
      <trkpt lat="50.50019" lon="4.62618">
        <ele>142.124756</ele>
        <time>2021-03-07T13:01:33Z</time>
      </trkpt>
      <trkpt lat="50.50032" lon="4.62671">
        <ele>139.564453</ele>
        <time>2021-03-07T13:02:03Z</time>
      </trkpt>
      <trkpt lat="50.50053" lon="4.62731">
        <ele>136.283203</ele>
        <time>2021-03-07T13:02:34Z</time>
      </trkpt>
      <trkpt lat="50.50067" lon="4.62773">
        <ele>133.818924</ele>
        <time>2021-03-07T13:03:04Z</time>
      </trkpt>
      <trkpt lat="50.50072" lon="4.6284">
        <ele>132.116547</ele>
        <time>2021-03-07T13:03:35Z</time>
      </trkpt>
      <trkpt lat="50.50072" lon="4.62901">
        <ele>133.363037</ele>
        <time>2021-03-07T13:04:05Z</time>
      </trkpt>
      <trkpt lat="50.5007" lon="4.62957">
        <ele>134.63205</ele>
        <time>2021-03-07T13:04:36Z</time>
      </trkpt>
      <trkpt lat="50.50071" lon="4.63013">
        <ele>135.454178</ele>
        <time>2021-03-07T13:05:06Z</time>
      </trkpt>
      <trkpt lat="50.5008" lon="4.63067">
        <ele>135.09877</ele>
        <time>2021-03-07T13:05:37Z</time>
      </trkpt>
      <trkpt lat="50.50088" lon="4.63124">
        <ele>135.253998</ele>
        <time>2021-03-07T13:06:07Z</time>
      </trkpt>
      <trkpt lat="50.50094" lon="4.63181">
        <ele>135.549225</ele>
        <time>2021-03-07T13:06:37Z</time>
      </trkpt>
      <trkpt lat="50.50108" lon="4.63236">
        <ele>133.682419</ele>
        <time>2021-03-07T13:07:08Z</time>
      </trkpt>
      <trkpt lat="50.50113" lon="4.63295">
        <ele>132.887344</ele>
        <time>2021-03-07T13:07:38Z</time>
      </trkpt>
      <trkpt lat="50.50123" lon="4.63334">
        <ele>131.721939</ele>
        <time>2021-03-07T13:08:12Z</time>
      </trkpt>
      <trkpt lat="50.50121" lon="4.63396">
        <ele>131.149033</ele>
        <time>2021-03-07T13:08:43Z</time>
      </trkpt>
      <trkpt lat="50.50106" lon="4.63483">
        <ele>130.126602</ele>
        <time>2021-03-07T13:09:13Z</time>
      </trkpt>
      <trkpt lat="50.50081" lon="4.63522">
        <ele>129.750061</ele>
        <time>2021-03-07T13:09:44Z</time>
      </trkpt>
      <trkpt lat="50.50075" lon="4.63573">
        <ele>126.96051</ele>
        <time>2021-03-07T13:10:14Z</time>
      </trkpt>
      <trkpt lat="50.50072" lon="4.63635">
        <ele>123.318542</ele>
        <time>2021-03-07T13:10:45Z</time>
      </trkpt>
      <trkpt lat="50.50103" lon="4.63676">
        <ele>120.453186</ele>
        <time>2021-03-07T13:11:15Z</time>
      </trkpt>
      <trkpt lat="50.50127" lon="4.6369">
        <ele>119.812256</ele>
        <time>2021-03-07T13:11:46Z</time>
      </trkpt>
      <trkpt lat="50.5015" lon="4.63654">
        <ele>120.044525</ele>
        <time>2021-03-07T13:12:16Z</time>
      </trkpt>
      <trkpt lat="50.50173" lon="4.6361">
        <ele>121.926178</ele>
        <time>2021-03-07T13:12:47Z</time>
      </trkpt>
      <trkpt lat="50.50201" lon="4.6357">
        <ele>123.087723</ele>
        <time>2021-03-07T13:13:18Z</time>
      </trkpt>
      <trkpt lat="50.5022" lon="4.6354">
        <ele>122.553314</ele>
        <time>2021-03-07T13:13:52Z</time>
      </trkpt>
      <trkpt lat="50.50243" lon="4.63519">
        <ele>121.052017</ele>
        <time>2021-03-07T13:14:26Z</time>
      </trkpt>
      <trkpt lat="50.50274" lon="4.63497">
        <ele>122.280548</ele>
        <time>2021-03-07T13:14:57Z</time>
      </trkpt>
      <trkpt lat="50.50299" lon="4.63437">
        <ele>124.860214</ele>
        <time>2021-03-07T13:15:28Z</time>
      </trkpt>
      <trkpt lat="50.50301" lon="4.63374">
        <ele>125.105347</ele>
        <time>2021-03-07T13:15:58Z</time>
      </trkpt>
      <trkpt lat="50.50297" lon="4.63309">
        <ele>125.290436</ele>
        <time>2021-03-07T13:16:29Z</time>
      </trkpt>
      <trkpt lat="50.5029" lon="4.63246">
        <ele>125.748695</ele>
        <time>2021-03-07T13:17:00Z</time>
      </trkpt>
      <trkpt lat="50.50284" lon="4.63185">
        <ele>125.939011</ele>
        <time>2021-03-07T13:17:30Z</time>
      </trkpt>
      <trkpt lat="50.5031" lon="4.63181">
        <ele>131.434143</ele>
        <time>2021-03-07T13:18:37Z</time>
      </trkpt>
      <trkpt lat="50.50329" lon="4.63209">
        <ele>134.196915</ele>
        <time>2021-03-07T13:20:04Z</time>
      </trkpt>
      <trkpt lat="50.50337" lon="4.63248">
        <ele>133.630768</ele>
        <time>2021-03-07T13:21:14Z</time>
      </trkpt>
      <trkpt lat="50.50359" lon="4.63275">
        <ele>135.420105</ele>
        <time>2021-03-07T13:23:11Z</time>
      </trkpt>
      <trkpt lat="50.50386" lon="4.63283">
        <ele>139.066284</ele>
        <time>2021-03-07T13:24:48Z</time>
      </trkpt>
      <trkpt lat="50.5041" lon="4.63269">
        <ele>142.858398</ele>
        <time>2021-03-07T13:25:41Z</time>
      </trkpt>
      <trkpt lat="50.50411" lon="4.63228">
        <ele>143.322815</ele>
        <time>2021-03-07T13:27:24Z</time>
      </trkpt>
      <trkpt lat="50.50385" lon="4.6322">
        <ele>140.343536</ele>
        <time>2021-03-07T13:28:07Z</time>
      </trkpt>
      <trkpt lat="50.50376" lon="4.63181">
        <ele>140.24472</ele>
        <time>2021-03-07T13:29:06Z</time>
      </trkpt>
      <trkpt lat="50.50361" lon="4.63146">
        <ele>139.630295</ele>
        <time>2021-03-07T13:30:18Z</time>
      </trkpt>
      <trkpt lat="50.50338" lon="4.63125">
        <ele>138.349731</ele>
        <time>2021-03-07T13:30:57Z</time>
      </trkpt>
      <trkpt lat="50.50316" lon="4.63074">
        <ele>135.476486</ele>
        <time>2021-03-07T13:31:27Z</time>
      </trkpt>
      <trkpt lat="50.50324" lon="4.63029">
        <ele>138.288239</ele>
        <time>2021-03-07T13:31:58Z</time>
      </trkpt>
      <trkpt lat="50.50306" lon="4.62996">
        <ele>134.759338</ele>
        <time>2021-03-07T13:33:35Z</time>
      </trkpt>
      <trkpt lat="50.50313" lon="4.62953">
        <ele>135.399414</ele>
        <time>2021-03-07T13:34:06Z</time>
      </trkpt>
      <trkpt lat="50.50325" lon="4.62917">
        <ele>137.383392</ele>
        <time>2021-03-07T13:34:41Z</time>
      </trkpt>
      <trkpt lat="50.50325" lon="4.62876">
        <ele>136.792999</ele>
        <time>2021-03-07T13:35:28Z</time>
      </trkpt>
      <trkpt lat="50.50329" lon="4.62834">
        <ele>137.159286</ele>
        <time>2021-03-07T13:36:03Z</time>
      </trkpt>
      <trkpt lat="50.50346" lon="4.628">
        <ele>137.522568</ele>
        <time>2021-03-07T13:36:34Z</time>
      </trkpt>
      <trkpt lat="50.50364" lon="4.62761">
        <ele>137.372864</ele>
        <time>2021-03-07T13:37:18Z</time>
      </trkpt>
      <trkpt lat="50.50376" lon="4.62724">
        <ele>137.189957</ele>
        <time>2021-03-07T13:37:50Z</time>
      </trkpt>
      <trkpt lat="50.50391" lon="4.6269">
        <ele>137.652359</ele>
        <time>2021-03-07T13:38:34Z</time>
      </trkpt>
      <trkpt lat="50.5041" lon="4.62659">
        <ele>138.325043</ele>
        <time>2021-03-07T13:39:22Z</time>
      </trkpt>
      <trkpt lat="50.50434" lon="4.62632">
        <ele>136.007507</ele>
        <time>2021-03-07T13:39:53Z</time>
      </trkpt>
      <trkpt lat="50.50459" lon="4.62647">
        <ele>137.38623</ele>
        <time>2021-03-07T13:40:48Z</time>
      </trkpt>
      <trkpt lat="50.50485" lon="4.62644">
        <ele>136.719849</ele>
        <time>2021-03-07T13:42:56Z</time>
      </trkpt>
      <trkpt lat="50.50509" lon="4.62628">
        <ele>134.547745</ele>
        <time>2021-03-07T13:44:04Z</time>
      </trkpt>
      <trkpt lat="50.5052" lon="4.62582">
        <ele>129.624435</ele>
        <time>2021-03-07T13:44:34Z</time>
      </trkpt>
      <trkpt lat="50.50495" lon="4.62596">
        <ele>131.406494</ele>
        <time>2021-03-07T13:45:10Z</time>
      </trkpt>
      <trkpt lat="50.50467" lon="4.62593">
        <ele>131.417969</ele>
        <time>2021-03-07T13:45:58Z</time>
      </trkpt>
      <trkpt lat="50.50433" lon="4.62574">
        <ele>129.903076</ele>
        <time>2021-03-07T13:46:29Z</time>
      </trkpt>
      <trkpt lat="50.50408" lon="4.62558">
        <ele>128.047455</ele>
        <time>2021-03-07T13:47:00Z</time>
      </trkpt>
      <trkpt lat="50.50436" lon="4.62502">
        <ele>122.909668</ele>
        <time>2021-03-07T13:47:31Z</time>
      </trkpt>
      <trkpt lat="50.50456" lon="4.62459">
        <ele>122.795944</ele>
        <time>2021-03-07T13:48:01Z</time>
      </trkpt>
      <trkpt lat="50.50479" lon="4.62413">
        <ele>122.521225</ele>
        <time>2021-03-07T13:48:31Z</time>
      </trkpt>
      <trkpt lat="50.50501" lon="4.62367">
        <ele>122.016846</ele>
        <time>2021-03-07T13:49:02Z</time>
      </trkpt>
      <trkpt lat="50.50487" lon="4.62326">
        <ele>122.622101</ele>
        <time>2021-03-07T13:49:32Z</time>
      </trkpt>
      <trkpt lat="50.50448" lon="4.62309">
        <ele>123.909386</ele>
        <time>2021-03-07T13:50:02Z</time>
      </trkpt>
      <trkpt lat="50.5041" lon="4.62307">
        <ele>125.278442</ele>
        <time>2021-03-07T13:50:33Z</time>
      </trkpt>
      <trkpt lat="50.50386" lon="4.62292">
        <ele>127.821442</ele>
        <time>2021-03-07T13:51:06Z</time>
      </trkpt>
      <trkpt lat="50.50385" lon="4.6225">
        <ele>128.515594</ele>
        <time>2021-03-07T13:51:47Z</time>
      </trkpt>
      <trkpt lat="50.50387" lon="4.62197">
        <ele>128.781464</ele>
        <time>2021-03-07T13:52:17Z</time>
      </trkpt>
      <trkpt lat="50.50378" lon="4.6213">
        <ele>129.843719</ele>
        <time>2021-03-07T13:52:48Z</time>
      </trkpt>
      <trkpt lat="50.50372" lon="4.62069">
        <ele>129.109009</ele>
        <time>2021-03-07T13:53:18Z</time>
      </trkpt>
      <trkpt lat="50.50365" lon="4.62019">
        <ele>128.538879</ele>
        <time>2021-03-07T13:53:49Z</time>
      </trkpt>
      <trkpt lat="50.50352" lon="4.61959">
        <ele>128.290268</ele>
        <time>2021-03-07T13:54:19Z</time>
      </trkpt>
      <trkpt lat="50.50332" lon="4.61911">
        <ele>127.926895</ele>
        <time>2021-03-07T13:54:50Z</time>
      </trkpt>
      <trkpt lat="50.50309" lon="4.61864">
        <ele>127.535286</ele>
        <time>2021-03-07T13:55:20Z</time>
      </trkpt>
      <trkpt lat="50.50289" lon="4.61812">
        <ele>126.643951</ele>
        <time>2021-03-07T13:55:51Z</time>
      </trkpt>
      <trkpt lat="50.50266" lon="4.61764">
        <ele>125.611908</ele>
        <time>2021-03-07T13:56:21Z</time>
      </trkpt>
      <trkpt lat="50.50247" lon="4.61713">
        <ele>124.531601</ele>
        <time>2021-03-07T13:56:51Z</time>
      </trkpt>
      <trkpt lat="50.50234" lon="4.61663">
        <ele>125.28717</ele>
        <time>2021-03-07T13:57:21Z</time>
      </trkpt>
      <trkpt lat="50.50203" lon="4.61632">
        <ele>129.940247</ele>
        <time>2021-03-07T13:57:52Z</time>
      </trkpt>
      <trkpt lat="50.50184" lon="4.61579">
        <ele>132.742798</ele>
        <time>2021-03-07T13:58:23Z</time>
      </trkpt>
      <trkpt lat="50.5016" lon="4.61543">
        <ele>135.643082</ele>
        <time>2021-03-07T13:58:54Z</time>
      </trkpt>
      <trkpt lat="50.50132" lon="4.61531">
        <ele>138.522766</ele>
        <time>2021-03-07T13:59:25Z</time>
      </trkpt>
      <trkpt lat="50.50115" lon="4.61498">
        <ele>139.97934</ele>
        <time>2021-03-07T13:59:56Z</time>
      </trkpt>
      <trkpt lat="50.50096" lon="4.61469">
        <ele>142.129272</ele>
        <time>2021-03-07T14:00:29Z</time>
      </trkpt>
      <trkpt lat="50.50068" lon="4.61438">
        <ele>144.55397</ele>
        <time>2021-03-07T14:00:59Z</time>
      </trkpt>
      <trkpt lat="50.5004" lon="4.61425">
        <ele>146.089966</ele>
        <time>2021-03-07T14:01:30Z</time>
      </trkpt>
      <trkpt lat="50.50022" lon="4.61475">
        <ele>147.290253</ele>
        <time>2021-03-07T14:02:02Z</time>
      </trkpt>
      <trkpt lat="50.50011" lon="4.61515">
        <ele>148.241425</ele>
        <time>2021-03-07T14:02:32Z</time>
      </trkpt>
      <trkpt lat="50.50009" lon="4.61567">
        <ele>148.41304</ele>
        <time>2021-03-07T14:03:02Z</time>
      </trkpt>
      <trkpt lat="50.5001" lon="4.61624">
        <ele>148.88324</ele>
        <time>2021-03-07T14:03:32Z</time>
      </trkpt>
    </trkseg>
  </trk>
</gpx>